Saint Joseph, Illinois
Current Conditions -  °F | °C
As of 7:53 PM on Monday 20 Oct 2014 (Local Time) from KCMI Reporting Station
Clear Clear  
Wind Chill: 52°   Ceiling: Unl
Heat Index: 52°   Visibility: 10mi
Dew Point: 43°   Wind: 6mph
Humidity: 71%   Direction: 280°W
Pressure: 29.96"   Gusts: NA
Location:  40.11°N, 88.04°W
Report Text: KCMI 210053Z 28005KT 10SM CLR 11/06 A2996 RMK AO2 SLP147 T01110061 $
Loading
Personal Weather Stations






























Interactive Weather Map
Tropical Storm Tracking
New forecast layout! Learn more

10-Day Weather Forecast

Advertisements
Track Severe Weather on mobile